Flight Track Log - Related Links

Times and Time Zones

All times are in EDT time to prevent confusion due to time zone crossing. See the N799J flight status page for this flight to view local times or setup timezone preferences in your user account.

Time Position Orientation Groundspeed Altitude Reporting Facility
EDT Latitude Longitude Course Direction KTS MPH feet Rate Location/Type
Mon 10:02:21 AM 40.6667 -73.7167 North 190 219 1,500  Level New York TRACON
Mon 10:04:00 AM 40.8209 -73.6951 North  Level Estimated
Mon 10:11:00 AM 41.4750 -73.6026 North  Level Estimated
Mon 10:12:00 AM 41.5685 -73.5893 North  Level Estimated
Mon 10:13:00 AM 41.6619 -73.5759 North  Level Estimated
Mon 10:14:00 AM 41.7553 -73.5624 North  Level Estimated
Mon 10:15:00 AM 41.8488 -73.5489 North  Level Estimated
Mon 10:16:00 AM 41.9422 -73.5354 North  Level Estimated
Mon 10:17:00 AM 42.0357 -73.5219 North  Level Estimated
Mon 10:18:00 AM 42.1291 -73.5083 North  Level Estimated
Mon 10:19:00 AM 42.2225 -73.4946 North  Level Estimated
Mon 10:20:00 AM 42.3159 -73.4809 North  Level Estimated
Mon 10:21:00 AM 42.4094 -73.4672 North  Level Estimated
Mon 10:22:00 AM 42.5028 -73.4535 North  Level Estimated
Mon 10:23:00 AM 42.5962 -73.4396 North  Level Estimated
Mon 10:24:00 AM 42.6897 -73.4258 North  Level Estimated
Mon 10:25:00 AM 42.7831 -73.4119 North  Level Estimated
Mon 10:26:00 AM 42.8765 -73.3980 North  Level Estimated
Mon 10:27:00 AM 42.9699 -73.3840 North  Level Estimated
Mon 10:28:00 AM 43.0633 -73.3700 North  Level Estimated
Mon 10:29:00 AM 43.1568 -73.3559 North  Level Estimated
Mon 10:30:00 AM 43.2502 -73.3418 North  Level Estimated
Mon 10:31:00 AM 43.3436 -73.3277 North  Level Estimated
Mon 10:32:00 AM 43.4370 -73.3135 North  Level Estimated
Mon 10:33:00 AM 43.5304 -73.2993 North  Level Estimated
Mon 10:34:00 AM 43.6238 -73.2850 North  Level Estimated
Mon 10:35:00 AM 43.7172 -73.2707 North  Level Estimated
Mon 10:36:00 AM 43.8106 -73.2563 North  Level Estimated
Mon 10:37:00 AM 43.9040 -73.2419 North  Level Estimated
Mon 10:38:00 AM 43.9974 -73.2274 North  Level Estimated
Mon 10:39:00 AM 44.0908 -73.2129 North  Level Estimated
Mon 10:40:00 AM 44.1842 -73.1984 North  Level Estimated
Mon 10:41:00 AM 44.2776 -73.1838 North  Level Estimated
Mon 10:42:00 AM 44.3710 -73.1691 North  Level Estimated
Mon 10:43:00 AM 44.4644 -73.1544 North  Level Estimated
Mon 10:44:00 AM 44.4719 -73.1533 North  Level Estimated
Mon 10:45:00 AM 44.4719 -73.1533 55° Northeast  Level Estimated
Mon 10:46:00 AM 44.4719 -73.1533 55° Northeast  Level Estimated
Mon 10:47:00 AM 44.4719 -73.1533 55° Northeast  Level Estimated
Mon 10:48:00 AM 44.4719 -73.1533 55° Northeast  Level Estimated
Mon 10:49:00 AM 44.4719 -73.1533 55° Northeast  Level Estimated
Mon 10:50:00 AM 44.4719 -73.1533 55° Northeast  Level Estimated
Mon 10:51:00 AM 44.4719 -73.1533 55° Northeast  Level Estimated
Mon 10:52:00 AM 44.4719 -73.1533 55° Northeast  Level Estimated
Mon 10:53:00 AM 44.4719 -73.1533 55° Northeast  Level Estimated
Mon 10:54:00 AM 44.4719 -73.1533 55° Northeast  Level Estimated
Mon 10:55:00 AM 44.4719 -73.1533 55° Northeast  Level Estimated
Mon 10:56:00 AM 44.4719 -73.1533 55° Northeast  Level Estimated
Mon 10:57:00 AM 44.4719 -73.1533 55° Northeast  Level Estimated
Mon 10:58:00 AM 44.4719 -73.1533 55° Northeast  Level Estimated
Mon 10:59:00 AM 44.4719 -73.1533 55° Northeast  Level Estimated
Mon 11:00:00 AM 44.4719 -73.1533 55° Northeast  Level Estimated
Mon 11:01:00 AM 44.4719 -73.1533 55° Northeast  Level Estimated

Login

Don't have an account? Register now (free) for customized features, flight alerts, and more!